KSUW

Richard I Bong Airport

Superior, Wisconsin, USA
METAR KSUW 141235Z AUTO 25008KT 10SM CLR M04/M05 A3007 RMK AO2 T10451052
Observed Flight Rules
Dec-14 @ 12:35 UTC (12 minutes ago) Visual Flight Rules
Wind Visibility Clouds
250° at 8 knots 10 miles
  • Clear skies
Temperatures Readings
Current -5°C / 23°F
Dewpoint -5°C / 23°F
Humidity 100%
Altimeter 30.07" Hg
Pressure 1018 hPa
Elevation 206
METAR KSUW 141235Z AUTO 25008KT 10SM CLR M04/M05 A3007 RMK AO2 T10451052
Observed Flight Rules
Dec-14 @ 12:35 UTC
(12 minutes ago)
VFR
Wind Visibility
250° at 8 knots 10 miles
Clouds
  • Clear skies
Temperature Dewpoint
-5°C / 23°F -5°C / 23°F
Humidity Altimeter Pressure
100% 30.07" Hg 1018 hPa